createdAt,value
2022-11-16T00:01:11.004Z,82.00
2022-11-16T00:05:15.010Z,82.10
2022-11-16T00:09:24.712Z,82.40
2022-11-16T00:13:32.777Z,82.60
2022-11-16T00:17:36.210Z,82.70
2022-11-16T00:21:40.220Z,82.90
2022-11-16T00:25:44.396Z,83.00
2022-11-16T00:29:49.311Z,83.10
2022-11-16T00:33:52.150Z,83.20
2022-11-16T00:37:54.971Z,83.10
2022-11-16T00:41:57.714Z,83.00
2022-11-16T00:46:00.818Z,83.10
2022-11-16T00:50:04.839Z,83.50
2022-11-16T00:54:13.978Z,83.50
2022-11-16T00:58:17.152Z,83.40
2022-11-16T01:02:24.257Z,83.30
2022-11-16T01:06:36.553Z,83.40
2022-11-16T01:10:43.657Z,83.80
2022-11-16T01:14:47.861Z,83.80
2022-11-16T01:18:53.200Z,83.60
2022-11-16T01:22:56.454Z,83.50
2022-11-16T01:27:00.125Z,83.70
2022-11-16T01:31:10.226Z,83.60
2022-11-16T01:35:18.015Z,83.50
2022-11-16T01:39:25.144Z,83.60
2022-11-16T01:43:54.254Z,84.00
2022-11-16T01:47:59.786Z,84.30
2022-11-16T01:52:12.077Z,84.40
2022-11-16T01:56:16.205Z,84.60
2022-11-16T02:00:35.084Z,84.60
2022-11-16T02:05:05.748Z,84.70
2022-11-16T02:09:48.266Z,84.90
2022-11-16T02:14:40.454Z,84.80
2022-11-16T02:19:38.015Z,84.80
2022-11-16T02:24:10.628Z,84.80
2022-11-16T02:29:17.652Z,84.80
2022-11-16T02:33:28.073Z,84.70
2022-11-16T02:37:46.739Z,84.60
2022-11-16T02:46:58.466Z,84.40
2022-11-16T02:51:11.318Z,84.60
2022-11-16T02:55:18.474Z,84.30
2022-11-16T02:59:29.609Z,84.00
2022-11-16T03:04:14.435Z,83.70
2022-11-16T03:08:42.948Z,83.20
2022-11-16T03:12:48.079Z,83.10
2022-11-16T03:16:57.745Z,83.10
2022-11-16T03:21:41.457Z,83.00
2022-11-16T03:26:08.624Z,82.80
2022-11-16T03:30:14.654Z,82.80
2022-11-16T03:34:29.817Z,82.80
2022-11-16T03:38:37.946Z,82.70
2022-11-16T03:42:49.700Z,82.60
2022-11-16T03:47:01.014Z,82.40
2022-11-16T03:51:14.099Z,82.50
2022-11-16T03:55:18.781Z,82.40
2022-11-16T03:59:25.479Z,82.30
2022-11-16T04:03:28.307Z,82.40
2022-11-16T04:07:53.852Z,82.70
2022-11-16T04:17:05.529Z,83.30
2022-11-16T04:21:47.758Z,83.70
2022-11-16T04:25:52.190Z,83.70
2022-11-16T04:29:58.211Z,83.50
2022-11-16T04:34:23.479Z,83.30
2022-11-16T04:38:32.909Z,83.10
2022-11-16T04:42:45.590Z,83.00
2022-11-16T04:47:06.945Z,82.90
2022-11-16T04:51:16.710Z,82.80
2022-11-16T04:55:33.452Z,82.70
2022-11-16T04:59:42.537Z,82.60
2022-11-16T05:04:00.850Z,82.70
2022-11-16T05:08:05.643Z,82.80
2022-11-16T05:12:21.201Z,82.90
2022-11-16T05:16:36.554Z,82.90
2022-11-16T05:20:59.636Z,82.70
2022-11-16T05:25:07.703Z,82.70
2022-11-16T05:29:21.010Z,83.20
2022-11-16T05:33:26.142Z,83.60
2022-11-16T05:37:30.946Z,83.60
2022-11-16T05:41:38.361Z,83.70
2022-11-16T05:45:55.301Z,83.60
2022-11-16T05:50:01.519Z,83.50
2022-11-16T05:54:21.799Z,83.30
2022-11-16T05:58:33.725Z,83.10
2022-11-16T06:02:39.067Z,82.90
2022-11-16T06:06:53.379Z,82.90
2022-11-16T06:11:14.954Z,82.70
2022-11-16T06:15:22.944Z,82.50
2022-11-16T06:19:32.076Z,82.40
2022-11-16T06:23:35.880Z,82.30
2022-11-16T06:27:48.444Z,82.20
2022-11-16T06:32:00.431Z,82.20
2022-11-16T06:36:04.195Z,82.00
2022-11-16T06:40:09.023Z,81.90
2022-11-16T06:44:15.846Z,81.70
2022-11-16T06:48:28.503Z,81.50
2022-11-16T06:52:31.770Z,80.90
2022-11-16T06:56:36.028Z,81.10
2022-11-16T07:00:39.892Z,81.30
2022-11-16T07:04:45.293Z,81.50
2022-11-16T07:08:48.039Z,81.50
2022-11-16T07:12:54.884Z,81.50
2022-11-16T07:17:03.958Z,81.60
2022-11-16T07:21:12.874Z,81.80
2022-11-16T07:25:16.080Z,82.00
2022-11-16T07:29:19.459Z,82.10
2022-11-16T07:33:43.511Z,82.20
2022-11-16T07:38:16.849Z,82.60
2022-11-16T07:42:21.397Z,82.50
2022-11-16T07:46:46.638Z,82.50
2022-11-16T07:51:03.059Z,82.40
2022-11-16T07:55:09.815Z,82.30
2022-11-16T07:59:13.015Z,82.20
2022-11-16T08:03:24.613Z,81.80
2022-11-16T08:07:30.011Z,81.80
2022-11-16T08:11:33.129Z,82.10
2022-11-16T08:15:36.002Z,82.20
2022-11-16T08:19:45.231Z,82.30
2022-11-16T08:23:55.343Z,82.30
2022-11-16T08:28:01.566Z,82.20
2022-11-16T08:32:05.517Z,82.30
2022-11-16T08:36:17.190Z,82.40
2022-11-16T08:40:21.749Z,82.50
2022-11-16T08:44:24.721Z,82.40
2022-11-16T08:48:30.713Z,82.40
2022-11-16T08:52:33.980Z,82.40
2022-11-16T08:56:37.886Z,82.50
2022-11-16T09:00:41.464Z,82.60
2022-11-16T09:04:44.525Z,82.60
2022-11-16T09:08:47.879Z,82.60
2022-11-16T09:12:50.723Z,82.70
2022-11-16T09:16:53.561Z,82.70
2022-11-16T09:20:58.157Z,82.80
2022-11-16T09:25:01.261Z,82.80
2022-11-16T09:29:04.515Z,82.60
2022-11-16T09:33:07.697Z,82.60
2022-11-16T09:37:12.006Z,82.90
2022-11-16T09:41:39.703Z,83.10
2022-11-16T09:46:03.552Z,83.20
2022-11-16T09:50:07.666Z,83.20
2022-11-16T09:54:17.652Z,82.90
2022-11-16T09:58:31.316Z,82.50
2022-11-16T10:02:45.675Z,81.90
2022-11-16T10:07:11.718Z,81.70
2022-11-16T10:11:35.775Z,81.20
2022-11-16T10:16:00.443Z,81.10
2022-11-16T10:20:38.620Z,80.90
2022-11-16T10:24:47.834Z,80.80
2022-11-16T10:29:10.347Z,80.20
2022-11-16T10:33:19.688Z,79.60
2022-11-16T10:37:32.827Z,79.60
2022-11-16T10:41:45.134Z,79.80
2022-11-16T10:45:58.084Z,79.80
2022-11-16T10:50:17.734Z,79.90
2022-11-16T10:54:20.663Z,79.80
2022-11-16T10:58:23.684Z,80.10
2022-11-16T11:02:35.634Z,80.20
2022-11-16T11:06:39.246Z,80.40
2022-11-16T11:10:42.470Z,80.50
2022-11-16T11:15:10.861Z,80.50
2022-11-16T11:19:25.856Z,80.40
2022-11-16T11:23:28.731Z,80.40
2022-11-16T11:27:35.659Z,80.00
2022-11-16T11:31:50.137Z,79.90
2022-11-16T11:36:05.491Z,79.30
2022-11-16T11:40:29.296Z,79.10
2022-11-16T11:44:57.256Z,78.80
2022-11-16T11:49:16.631Z,78.80
2022-11-16T11:53:39.633Z,78.40
2022-11-16T11:57:44.391Z,78.20
2022-11-16T12:02:28.540Z,77.80
2022-11-16T12:06:43.584Z,77.20
2022-11-16T12:10:53.660Z,76.00
2022-11-16T12:15:13.550Z,75.60
2022-11-16T12:19:33.706Z,75.40
2022-11-16T12:23:49.135Z,75.70
2022-11-16T12:28:04.112Z,75.20
2022-11-16T12:32:37.846Z,74.50
2022-11-16T12:36:58.623Z,73.80
2022-11-16T12:41:42.500Z,73.50
2022-11-16T12:46:03.257Z,73.30
2022-11-16T12:50:41.881Z,73.40
2022-11-16T12:55:27.974Z,73.80
2022-11-16T13:00:07.727Z,73.20
2022-11-16T13:04:16.259Z,73.50
2022-11-16T13:08:37.649Z,73.70
2022-11-16T13:12:42.631Z,73.70
2022-11-16T13:16:47.863Z,74.00
2022-11-16T13:20:59.230Z,74.40
2022-11-16T13:25:29.334Z,74.50
2022-11-16T13:29:47.554Z,74.40
2022-11-16T13:33:59.263Z,74.40
2022-11-16T13:38:02.138Z,74.40
2022-11-16T13:42:13.122Z,74.50
2022-11-16T13:46:48.339Z,74.70
2022-11-16T13:50:41.763Z,74.60
2022-11-16T13:54:56.431Z,74.80
2022-11-16T13:58:59.736Z,75.00
2022-11-16T14:03:17.980Z,75.00
2022-11-16T14:07:55.734Z,75.10
2022-11-16T14:12:53.951Z,75.30
2022-11-16T14:16:56.931Z,75.40
2022-11-16T14:21:09.327Z,75.70
2022-11-16T14:25:30.773Z,75.80
2022-11-16T14:29:56.463Z,76.20
2022-11-16T14:34:00.902Z,76.10
2022-11-16T14:38:17.911Z,76.50
2022-11-16T14:42:25.014Z,76.70
2022-11-16T14:46:30.325Z,77.60
2022-11-16T14:50:38.123Z,78.80
2022-11-16T14:54:57.253Z,79.70
2022-11-16T14:59:01.003Z,80.10
2022-11-16T15:03:05.848Z,79.20
2022-11-16T15:07:08.840Z,80.10
2022-11-16T15:11:25.731Z,79.80
2022-11-16T15:15:31.136Z,79.80
2022-11-16T15:19:34.025Z,79.90
2022-11-16T15:24:02.080Z,79.90
2022-11-16T15:34:19.657Z,79.90
2022-11-16T15:38:27.270Z,79.90
2022-11-16T15:42:30.968Z,79.90
2022-11-16T15:46:35.596Z,79.80
2022-11-16T15:50:38.398Z,79.90
2022-11-16T15:55:01.298Z,79.80
2022-11-16T15:59:12.575Z,79.80
2022-11-16T16:03:23.233Z,79.80
2022-11-16T16:07:39.812Z,79.80
2022-11-16T16:11:43.016Z,79.80
2022-11-16T16:15:46.069Z,79.70
2022-11-16T16:19:57.611Z,79.60
2022-11-16T16:24:00.492Z,79.70
2022-11-16T16:28:04.115Z,79.70
2022-11-16T16:32:13.246Z,79.70
2022-11-16T16:36:16.343Z,79.70
2022-11-16T16:40:19.423Z,79.60
2022-11-16T16:44:22.144Z,79.60
2022-11-16T16:48:25.958Z,79.70
2022-11-16T16:52:29.129Z,79.70
2022-11-16T16:56:43.809Z,79.70
2022-11-16T17:01:20.343Z,79.80
2022-11-16T17:05:26.515Z,79.90
2022-11-16T17:09:29.787Z,80.10
2022-11-16T17:13:34.500Z,80.20
2022-11-16T17:18:05.489Z,80.20
2022-11-16T17:22:08.296Z,80.20
2022-11-16T17:26:11.268Z,80.30
2022-11-16T17:30:14.915Z,80.30
2022-11-16T17:34:17.800Z,80.40
2022-11-16T17:38:20.527Z,80.50
2022-11-16T17:42:23.442Z,80.60
2022-11-16T17:46:26.268Z,80.50
2022-11-16T17:50:29.138Z,80.40
2022-11-16T17:54:32.217Z,80.40
2022-11-16T17:58:35.147Z,80.30
2022-11-16T18:02:38.000Z,80.40
2022-11-16T18:06:42.658Z,80.60
2022-11-16T18:10:47.170Z,80.90
2022-11-16T18:15:13.488Z,81.10
2022-11-16T18:19:19.207Z,81.10
2022-11-16T18:23:25.638Z,81.30
2022-11-16T18:27:28.371Z,81.20
2022-11-16T18:31:33.072Z,81.10
2022-11-16T18:35:35.910Z,81.00
2022-11-16T18:39:38.609Z,80.90
2022-11-16T18:43:43.157Z,81.00
2022-11-16T18:47:46.214Z,80.80
2022-11-16T18:51:48.862Z,80.80
2022-11-16T18:55:57.696Z,80.70
2022-11-16T19:00:00.875Z,80.50
2022-11-16T19:04:03.765Z,80.50
2022-11-16T19:08:06.966Z,80.50
2022-11-16T19:12:09.675Z,80.50
2022-11-16T19:16:13.867Z,80.40
2022-11-16T19:20:16.995Z,80.30
2022-11-16T19:24:19.812Z,80.30
2022-11-16T19:28:22.509Z,80.50
2022-11-16T19:32:25.453Z,80.50
2022-11-16T19:36:30.382Z,80.60
2022-11-16T19:40:34.715Z,80.70
2022-11-16T19:44:37.439Z,80.70
2022-11-16T19:48:40.432Z,80.60
2022-11-16T19:52:45.336Z,80.90
2022-11-16T19:56:53.660Z,81.20
2022-11-16T20:01:05.519Z,81.30
2022-11-16T20:05:08.923Z,81.30
2022-11-16T20:09:12.180Z,81.30
2022-11-16T20:13:14.922Z,81.30
2022-11-16T20:17:17.604Z,81.40
2022-11-16T20:21:23.323Z,81.40
2022-11-16T20:25:26.009Z,81.50
2022-11-16T20:29:28.673Z,81.50
2022-11-16T20:33:33.925Z,81.40
2022-11-16T20:37:37.361Z,81.50
2022-11-16T20:41:40.405Z,81.50
2022-11-16T20:45:43.299Z,81.50
2022-11-16T20:49:46.010Z,81.50
2022-11-16T20:53:50.072Z,81.60
2022-11-16T20:57:52.983Z,81.60
2022-11-16T21:01:55.932Z,82.00
2022-11-16T21:05:58.845Z,82.20
2022-11-16T21:10:19.788Z,82.10
2022-11-16T21:14:23.620Z,81.90
2022-11-16T21:18:30.684Z,81.90
2022-11-16T21:22:35.218Z,82.00
2022-11-16T21:26:38.430Z,82.00
2022-11-16T21:30:41.268Z,81.90
2022-11-16T21:34:44.543Z,81.70
2022-11-16T21:38:47.776Z,81.70
2022-11-16T21:42:51.988Z,81.60
2022-11-16T21:46:54.693Z,81.50
2022-11-16T21:51:09.619Z,81.50
2022-11-16T21:55:12.548Z,81.70
2022-11-16T21:59:15.351Z,81.50
2022-11-16T22:03:18.065Z,81.50
2022-11-16T22:07:32.829Z,81.50
2022-11-16T22:11:35.715Z,81.50
2022-11-16T22:15:41.660Z,81.20
2022-11-16T22:19:47.028Z,81.00
2022-11-16T22:23:49.730Z,81.20
2022-11-16T22:28:19.052Z,81.10
2022-11-16T22:32:15.396Z,81.10
2022-11-16T22:36:18.100Z,81.00
2022-11-16T22:40:20.856Z,81.10
2022-11-16T22:44:23.774Z,81.40
2022-11-16T22:48:31.423Z,81.40
2022-11-16T22:52:34.154Z,81.40
2022-11-16T22:56:36.958Z,81.40
2022-11-16T23:00:42.206Z,81.50
2022-11-16T23:04:45.247Z,81.60
2022-11-16T23:08:48.267Z,81.70
2022-11-16T23:13:09.519Z,81.70
2022-11-16T23:17:12.249Z,81.70
2022-11-16T23:21:33.622Z,81.70
2022-11-16T23:25:55.764Z,81.60
2022-11-16T23:30:01.626Z,81.60
2022-11-16T23:34:04.675Z,81.80
2022-11-16T23:38:07.728Z,81.70
2022-11-16T23:42:29.434Z,81.60
2022-11-16T23:46:33.708Z,81.70
2022-11-16T23:50:37.171Z,81.80
2022-11-16T23:54:40.018Z,81.70
2022-11-16T23:58:42.861Z,81.60
